Kans op hagel komende 24u

Kans op onweer komende 24 uur

Maximumtemperatuur komende 24u

Minimumtemperatuur komende 24 uur

Verwachte neerslag komende 24u

Kans op convectieve bewolking komende 24u

Neerslag & Bliksem

Onweer Ontladingen

Het weer

[Source: ADDS]
METAR
EBBR 231750Z 05009KT CAVOK 12/04 Q1016 NOSIG =
TAF
EBBR 231706Z 2318/2424 09010KT 9999 FEW025 TEMPO 2400/2409 SCT006 BKN009 PROB30 2404/2408 4500 BR =
SR / SS: 05:36 / 18:01 UTC (Brussels 2017-03-23)
Go to top